createdAt,value
2023-06-21T00:00:13.937Z,21.20
2023-06-21T00:02:43.036Z,21.20
2023-06-21T00:05:11.957Z,21.20
2023-06-21T00:07:42.088Z,21.20
2023-06-21T00:10:11.543Z,21.20
2023-06-21T00:12:40.872Z,21.30
2023-06-21T00:15:10.764Z,21.20
2023-06-21T00:17:38.759Z,21.20
2023-06-21T00:20:10.883Z,21.20
2023-06-21T00:22:39.006Z,21.10
2023-06-21T00:25:08.628Z,21.10
2023-06-21T00:27:37.467Z,21.10
2023-06-21T00:30:08.503Z,21.10
2023-06-21T00:32:36.606Z,21.00
2023-06-21T00:35:05.135Z,21.00
2023-06-21T00:37:33.156Z,21.00
2023-06-21T00:40:03.745Z,21.00
2023-06-21T00:42:34.552Z,21.00
2023-06-21T00:45:04.959Z,20.90
2023-06-21T00:47:34.420Z,20.90
2023-06-21T00:50:04.014Z,20.90
2023-06-21T00:52:33.001Z,20.90
2023-06-21T00:55:01.291Z,20.90
2023-06-21T00:57:29.674Z,20.80
2023-06-21T00:59:58.171Z,20.90
2023-06-21T01:02:26.506Z,20.90
2023-06-21T01:04:56.462Z,20.80
2023-06-21T01:07:34.841Z,20.70
2023-06-21T01:10:13.529Z,20.70
2023-06-21T01:12:56.417Z,20.70
2023-06-21T01:15:27.209Z,20.80
2023-06-21T01:17:59.422Z,20.80
2023-06-21T01:20:32.087Z,20.80
2023-06-21T01:23:18.865Z,20.80
2023-06-21T01:26:03.118Z,20.70
2023-06-21T01:28:43.888Z,20.70
2023-06-21T01:31:17.049Z,20.70
2023-06-21T01:33:46.177Z,20.70
2023-06-21T01:36:15.875Z,20.80
2023-06-21T01:38:45.235Z,20.80
2023-06-21T01:41:14.113Z,20.80
2023-06-21T01:43:42.567Z,20.80
2023-06-21T01:46:13.925Z,20.80
2023-06-21T01:48:43.980Z,20.80
2023-06-21T01:51:14.220Z,20.70
2023-06-21T01:53:43.809Z,20.70
2023-06-21T01:56:17.151Z,20.70
2023-06-21T01:58:46.732Z,20.70
2023-06-21T02:01:20.101Z,20.60
2023-06-21T02:03:53.945Z,20.60
2023-06-21T02:06:26.048Z,20.60
2023-06-21T02:08:55.380Z,20.60
2023-06-21T02:11:23.830Z,20.50
2023-06-21T02:13:53.223Z,20.50
2023-06-21T02:16:26.295Z,20.40
2023-06-21T02:19:02.722Z,20.50
2023-06-21T02:21:30.895Z,20.40
2023-06-21T02:23:59.316Z,20.40
2023-06-21T02:26:27.963Z,20.40
2023-06-21T02:28:55.933Z,20.40
2023-06-21T02:31:25.633Z,20.30
2023-06-21T02:33:53.579Z,20.20
2023-06-21T02:36:21.857Z,20.20
2023-06-21T02:38:49.863Z,20.30
2023-06-21T02:41:20.807Z,20.20
2023-06-21T02:43:50.765Z,20.20
2023-06-21T02:46:19.844Z,20.10
2023-06-21T02:48:49.220Z,20.00
2023-06-21T02:51:17.228Z,20.10
2023-06-21T02:53:45.158Z,20.00
2023-06-21T02:56:13.440Z,19.90
2023-06-21T02:58:44.165Z,19.90
2023-06-21T03:01:13.191Z,19.80
2023-06-21T03:03:42.210Z,19.80
2023-06-21T03:06:12.436Z,19.80
2023-06-21T03:08:42.005Z,19.90
2023-06-21T03:11:12.768Z,19.90
2023-06-21T03:13:40.825Z,19.90
2023-06-21T03:16:08.982Z,19.80
2023-06-21T03:18:37.462Z,19.70
2023-06-21T03:21:06.988Z,19.70
2023-06-21T03:23:37.940Z,19.70
2023-06-21T03:26:07.487Z,19.70
2023-06-21T03:28:36.219Z,19.60
2023-06-21T03:31:05.816Z,19.60
2023-06-21T03:33:34.085Z,19.60
2023-06-21T03:36:04.564Z,19.60
2023-06-21T03:38:34.951Z,19.50
2023-06-21T03:41:06.333Z,19.50
2023-06-21T03:43:34.753Z,19.50
2023-06-21T03:46:07.252Z,19.40
2023-06-21T03:48:37.781Z,19.50
2023-06-21T03:51:05.787Z,19.40
2023-06-21T03:53:35.237Z,19.40
2023-06-21T03:56:06.006Z,19.40
2023-06-21T03:58:34.467Z,19.40
2023-06-21T04:01:03.592Z,19.40
2023-06-21T04:03:32.225Z,19.40
2023-06-21T04:06:01.960Z,19.30
2023-06-21T04:08:30.486Z,19.30
2023-06-21T04:11:01.133Z,19.30
2023-06-21T04:13:31.122Z,19.40
2023-06-21T04:15:59.542Z,19.40
2023-06-21T04:18:27.532Z,19.40
2023-06-21T04:20:59.617Z,19.40
2023-06-21T04:23:28.122Z,19.50
2023-06-21T04:25:58.113Z,19.50
2023-06-21T04:28:27.192Z,19.50
2023-06-21T04:30:57.877Z,19.50
2023-06-21T04:33:27.167Z,19.50
2023-06-21T04:35:55.174Z,19.60
2023-06-21T04:38:23.874Z,19.70
2023-06-21T04:40:53.717Z,19.70
2023-06-21T04:43:26.399Z,19.80
2023-06-21T04:45:55.406Z,19.80
2023-06-21T04:48:25.599Z,19.80
2023-06-21T04:50:53.740Z,19.90
2023-06-21T04:53:31.634Z,19.90
2023-06-21T04:55:59.816Z,20.00
2023-06-21T04:58:28.354Z,20.00
2023-06-21T05:00:56.594Z,20.10
2023-06-21T05:03:26.224Z,20.20
2023-06-21T05:05:54.352Z,20.30
2023-06-21T05:08:24.099Z,20.40
2023-06-21T05:10:52.823Z,20.50
2023-06-21T05:13:20.860Z,20.60
2023-06-21T05:15:49.520Z,20.60
2023-06-21T05:18:18.065Z,20.70
2023-06-21T05:20:47.375Z,20.80
2023-06-21T05:23:17.012Z,20.90
2023-06-21T05:25:45.118Z,21.00
2023-06-21T05:28:14.679Z,21.10
2023-06-21T05:30:43.444Z,21.10
2023-06-21T05:33:12.136Z,21.20
2023-06-21T05:35:40.161Z,21.20
2023-06-21T05:38:11.670Z,21.20
2023-06-21T05:40:41.359Z,21.20
2023-06-21T05:43:11.480Z,21.30
2023-06-21T05:45:40.582Z,21.50
2023-06-21T05:48:08.584Z,21.60
2023-06-21T05:50:37.394Z,21.70
2023-06-21T05:53:06.047Z,21.80
2023-06-21T05:55:35.340Z,21.80
2023-06-21T05:58:03.473Z,21.80
2023-06-21T06:00:33.025Z,22.10
2023-06-21T06:03:02.868Z,22.20
2023-06-21T06:05:31.345Z,22.40
2023-06-21T06:07:59.332Z,22.50
2023-06-21T06:10:28.010Z,22.50
2023-06-21T06:12:58.302Z,22.60
2023-06-21T06:15:26.386Z,22.80
2023-06-21T06:17:54.540Z,22.90
2023-06-21T06:20:22.523Z,22.90
2023-06-21T06:22:50.524Z,23.00
2023-06-21T06:25:18.605Z,23.10
2023-06-21T06:27:47.112Z,23.30
2023-06-21T06:30:18.136Z,23.50
2023-06-21T06:32:46.138Z,23.50
2023-06-21T06:35:14.830Z,23.60
2023-06-21T06:37:42.829Z,23.80
2023-06-21T06:40:12.304Z,24.00
2023-06-21T06:42:40.257Z,24.10
2023-06-21T06:45:09.928Z,24.30
2023-06-21T06:47:40.440Z,24.30
2023-06-21T06:50:10.419Z,24.50
2023-06-21T06:52:38.574Z,24.60
2023-06-21T06:55:08.290Z,24.70
2023-06-21T06:57:43.804Z,24.80
2023-06-21T07:00:21.777Z,24.90
2023-06-21T07:02:52.294Z,25.00
2023-06-21T07:05:21.139Z,25.20
2023-06-21T07:07:49.277Z,25.40
2023-06-21T07:10:24.917Z,25.50
2023-06-21T07:12:55.373Z,25.50
2023-06-21T07:15:25.732Z,25.40
2023-06-21T07:17:58.101Z,25.40
2023-06-21T07:20:26.914Z,25.40
2023-06-21T07:22:55.406Z,25.40
2023-06-21T07:25:23.491Z,25.50
2023-06-21T07:27:53.070Z,25.60
2023-06-21T07:30:23.670Z,25.90
2023-06-21T07:32:52.100Z,26.10
2023-06-21T07:35:22.191Z,26.30
2023-06-21T07:37:51.842Z,26.50
2023-06-21T07:40:20.068Z,26.50
2023-06-21T07:42:50.357Z,26.70
2023-06-21T07:45:19.153Z,26.80
2023-06-21T07:47:47.179Z,27.00
2023-06-21T07:50:22.507Z,27.00
2023-06-21T07:52:52.564Z,27.00
2023-06-21T07:55:20.988Z,27.00
2023-06-21T07:57:49.353Z,27.10
2023-06-21T08:00:18.619Z,27.20
2023-06-21T08:02:51.329Z,27.20
2023-06-21T08:05:19.711Z,27.40
2023-06-21T08:07:49.560Z,27.50
2023-06-21T08:10:19.628Z,27.60
2023-06-21T08:12:48.103Z,27.50
2023-06-21T08:15:17.081Z,27.60
2023-06-21T08:17:46.025Z,27.70
2023-06-21T08:20:14.414Z,27.70
2023-06-21T08:22:42.704Z,27.70
2023-06-21T08:25:14.977Z,27.70
2023-06-21T08:27:44.378Z,28.00
2023-06-21T08:30:16.390Z,28.10
2023-06-21T08:32:44.467Z,28.20
2023-06-21T08:35:12.448Z,28.30
2023-06-21T08:37:43.086Z,28.10
2023-06-21T08:40:12.317Z,28.20
2023-06-21T08:42:41.733Z,28.30
2023-06-21T08:45:11.695Z,28.40
2023-06-21T08:47:40.746Z,28.70
2023-06-21T08:50:14.128Z,28.90
2023-06-21T08:52:45.335Z,28.80
2023-06-21T08:55:16.394Z,28.90
2023-06-21T08:57:50.013Z,28.90
2023-06-21T09:00:24.290Z,28.90
2023-06-21T09:02:58.950Z,29.00
2023-06-21T09:05:34.463Z,29.20
2023-06-21T09:08:05.572Z,29.10
2023-06-21T09:10:38.498Z,29.20
2023-06-21T09:13:08.323Z,29.30
2023-06-21T09:15:39.030Z,29.40
2023-06-21T09:18:07.883Z,29.40
2023-06-21T09:20:38.800Z,29.50
2023-06-21T09:23:07.780Z,29.30
2023-06-21T09:25:35.802Z,29.60
2023-06-21T09:28:03.943Z,29.70
2023-06-21T09:30:37.786Z,29.80
2023-06-21T09:33:09.710Z,29.70
2023-06-21T09:35:40.592Z,29.50
2023-06-21T09:38:23.407Z,29.80
2023-06-21T09:40:52.127Z,29.70
2023-06-21T09:43:21.959Z,30.00
2023-06-21T09:46:04.497Z,29.90
2023-06-21T09:48:38.047Z,30.00
2023-06-21T09:51:09.804Z,30.10
2023-06-21T09:53:38.728Z,30.20
2023-06-21T09:56:06.988Z,30.10
2023-06-21T09:58:36.194Z,30.00
2023-06-21T10:01:07.939Z,30.20
2023-06-21T10:03:38.066Z,30.30
2023-06-21T10:06:06.357Z,30.30
2023-06-21T10:08:37.426Z,30.30
2023-06-21T10:11:06.085Z,30.30
2023-06-21T10:13:38.748Z,30.20
2023-06-21T10:16:07.592Z,30.40
2023-06-21T10:18:40.829Z,30.80
2023-06-21T10:21:10.501Z,30.60
2023-06-21T10:23:44.119Z,30.90
2023-06-21T10:26:17.023Z,30.90
2023-06-21T10:28:47.931Z,31.00
2023-06-21T10:31:16.371Z,31.10
2023-06-21T10:33:46.937Z,31.10
2023-06-21T10:36:23.389Z,31.10
2023-06-21T10:38:56.033Z,30.90
2023-06-21T10:41:24.575Z,31.10
2023-06-21T10:43:53.212Z,31.10
2023-06-21T10:46:21.969Z,31.40
2023-06-21T10:48:52.986Z,31.30
2023-06-21T10:51:22.198Z,31.40
2023-06-21T10:53:51.532Z,31.60
2023-06-21T10:56:21.028Z,31.60
2023-06-21T10:58:49.002Z,31.80
2023-06-21T11:01:17.100Z,31.60
2023-06-21T11:03:45.476Z,31.10
2023-06-21T11:06:26.999Z,30.80
2023-06-21T11:08:56.519Z,30.70
2023-06-21T11:11:32.005Z,30.70
2023-06-21T11:14:02.618Z,30.60
2023-06-21T11:16:33.787Z,30.70
2023-06-21T11:19:05.927Z,30.60
2023-06-21T11:21:43.308Z,30.40
2023-06-21T11:24:12.536Z,30.30
2023-06-21T11:26:54.423Z,30.20
2023-06-21T11:29:22.991Z,30.10
2023-06-21T11:31:51.021Z,30.00
2023-06-21T11:34:25.938Z,29.90
2023-06-21T11:36:56.273Z,29.60
2023-06-21T11:39:25.423Z,29.30
2023-06-21T11:42:01.606Z,28.70
2023-06-21T11:44:33.912Z,27.90
2023-06-21T11:47:15.223Z,27.10
2023-06-21T11:49:49.464Z,26.60
2023-06-21T11:52:34.132Z,26.10
2023-06-21T11:55:15.147Z,25.90
2023-06-21T11:57:49.429Z,25.30
2023-06-21T12:00:18.192Z,25.20
2023-06-21T12:02:46.237Z,25.10
2023-06-21T12:05:14.394Z,24.90
2023-06-21T12:07:44.000Z,24.90
2023-06-21T12:10:13.906Z,24.90
2023-06-21T12:12:41.919Z,24.80
2023-06-21T12:15:10.791Z,24.80
2023-06-21T12:17:38.918Z,24.80
2023-06-21T12:20:09.196Z,24.90
2023-06-21T12:22:37.429Z,24.80
2023-06-21T12:25:07.841Z,24.80
2023-06-21T12:27:36.188Z,24.90
2023-06-21T12:30:05.287Z,24.70
2023-06-21T12:32:36.881Z,25.00
2023-06-21T12:35:05.478Z,25.10
2023-06-21T12:37:33.621Z,25.40
2023-06-21T12:40:05.173Z,25.40
2023-06-21T12:42:34.906Z,25.30
2023-06-21T12:45:03.317Z,25.60
2023-06-21T12:47:33.364Z,25.70
2023-06-21T12:50:01.914Z,25.70
2023-06-21T12:52:30.208Z,25.70
2023-06-21T12:54:58.966Z,25.90
2023-06-21T12:57:31.289Z,26.00
2023-06-21T13:00:00.968Z,26.10
2023-06-21T13:02:29.171Z,26.30
2023-06-21T13:04:58.108Z,26.30
2023-06-21T13:07:26.236Z,26.30
2023-06-21T13:09:54.303Z,26.50
2023-06-21T13:12:22.385Z,26.30
2023-06-21T13:14:50.411Z,26.50
2023-06-21T13:17:20.318Z,26.50
2023-06-21T13:19:48.410Z,26.50
2023-06-21T13:22:16.391Z,26.60
2023-06-21T13:24:44.414Z,26.60
2023-06-21T13:27:12.508Z,26.60
2023-06-21T13:29:40.944Z,26.80
2023-06-21T13:32:09.323Z,27.10
2023-06-21T13:34:38.775Z,27.20
2023-06-21T13:37:07.049Z,27.20
2023-06-21T13:39:35.616Z,27.40
2023-06-21T13:42:04.670Z,27.70
2023-06-21T13:44:32.648Z,27.80
2023-06-21T13:47:00.821Z,27.60
2023-06-21T13:49:28.926Z,27.60
2023-06-21T13:51:58.272Z,27.60
2023-06-21T13:54:26.275Z,27.70
2023-06-21T13:56:55.315Z,27.70
2023-06-21T13:59:23.707Z,28.10
2023-06-21T14:01:52.083Z,28.20
2023-06-21T14:04:20.192Z,28.60
2023-06-21T14:06:48.282Z,28.60
2023-06-21T14:09:17.638Z,28.50
2023-06-21T14:11:46.142Z,28.70
2023-06-21T14:14:14.330Z,28.60
2023-06-21T14:16:42.370Z,28.50
2023-06-21T14:19:12.439Z,28.50
2023-06-21T14:21:40.466Z,28.70
2023-06-21T14:24:08.952Z,28.50
2023-06-21T14:26:38.630Z,28.50
2023-06-21T14:29:06.731Z,28.60
2023-06-21T14:31:36.132Z,28.50
2023-06-21T14:34:04.369Z,28.50
2023-06-21T14:36:32.486Z,28.40
2023-06-21T14:39:00.888Z,28.30
2023-06-21T14:41:30.207Z,28.20
2023-06-21T14:43:59.724Z,28.10
2023-06-21T14:46:27.827Z,28.00
2023-06-21T14:48:55.878Z,27.70
2023-06-21T14:51:24.151Z,27.60
2023-06-21T14:53:52.292Z,27.50
2023-06-21T14:56:20.478Z,27.30
2023-06-21T14:58:48.612Z,27.30
2023-06-21T15:01:19.269Z,27.30
2023-06-21T15:03:48.818Z,27.30
2023-06-21T15:06:17.033Z,27.30
2023-06-21T15:08:46.328Z,27.20
2023-06-21T15:11:14.772Z,27.20
2023-06-21T15:13:42.777Z,27.20
2023-06-21T15:16:10.890Z,27.20
2023-06-21T15:18:40.402Z,27.10
2023-06-21T15:21:08.520Z,27.00
2023-06-21T15:23:36.589Z,26.90
2023-06-21T15:26:04.761Z,26.70
2023-06-21T15:28:32.738Z,26.60
2023-06-21T15:31:02.077Z,26.50
2023-06-21T15:33:30.191Z,26.60
2023-06-21T15:35:59.614Z,26.50
2023-06-21T15:38:27.832Z,26.50
2023-06-21T15:40:57.327Z,26.50
2023-06-21T15:43:27.160Z,26.50
2023-06-21T15:45:55.301Z,26.50
2023-06-21T15:48:43.005Z,26.50
2023-06-21T15:51:13.166Z,26.40
2023-06-21T15:53:43.294Z,26.40
2023-06-21T15:56:11.676Z,26.40
2023-06-21T15:58:40.322Z,26.30
2023-06-21T16:01:09.932Z,26.30
2023-06-21T16:03:38.264Z,26.10
2023-06-21T16:06:06.409Z,26.10
2023-06-21T16:08:35.863Z,26.10
2023-06-21T16:11:04.314Z,26.10
2023-06-21T16:16:19.069Z,26.00
2023-06-21T16:18:49.687Z,26.00
2023-06-21T16:21:18.314Z,26.00
2023-06-21T16:23:48.601Z,25.90
2023-06-21T16:26:16.945Z,25.90
2023-06-21T16:28:48.614Z,25.90
2023-06-21T16:31:16.630Z,25.90
2023-06-21T16:33:44.863Z,25.80
2023-06-21T16:36:14.314Z,25.80
2023-06-21T16:38:43.333Z,25.70
2023-06-21T16:41:14.540Z,25.70
2023-06-21T16:43:44.891Z,25.80
2023-06-21T16:46:13.261Z,25.70
2023-06-21T16:48:42.234Z,25.70
2023-06-21T16:51:11.986Z,25.80
2023-06-21T16:53:40.117Z,25.80
2023-06-21T16:56:08.554Z,25.90
2023-06-21T16:58:38.527Z,25.80
2023-06-21T17:01:09.025Z,25.80
2023-06-21T17:03:37.198Z,25.70
2023-06-21T17:06:05.328Z,25.70
2023-06-21T17:08:33.328Z,25.70
2023-06-21T17:11:02.212Z,25.70
2023-06-21T17:13:30.247Z,25.70
2023-06-21T17:16:01.897Z,25.70
2023-06-21T17:18:29.984Z,25.70
2023-06-21T17:20:59.473Z,25.70
2023-06-21T17:23:29.092Z,25.60
2023-06-21T17:25:57.446Z,25.50
2023-06-21T17:28:26.363Z,25.40
2023-06-21T17:30:54.543Z,25.40
2023-06-21T17:33:24.513Z,25.40
2023-06-21T17:35:52.658Z,25.30
2023-06-21T17:38:21.192Z,25.30
2023-06-21T17:40:50.232Z,25.30
2023-06-21T17:43:18.541Z,25.20
2023-06-21T17:45:47.172Z,25.20
2023-06-21T17:48:15.455Z,25.20
2023-06-21T17:50:45.514Z,25.20
2023-06-21T17:53:15.548Z,25.10
2023-06-21T17:55:43.992Z,25.10
2023-06-21T17:58:15.154Z,25.10
2023-06-21T18:00:44.086Z,25.00
2023-06-21T18:03:12.362Z,25.00
2023-06-21T18:05:40.857Z,24.90
2023-06-21T18:08:10.231Z,24.90
2023-06-21T18:10:38.445Z,24.90
2023-06-21T18:13:07.467Z,24.80
2023-06-21T18:15:35.575Z,24.80
2023-06-21T18:18:04.214Z,24.70
2023-06-21T18:20:32.402Z,24.70
2023-06-21T18:23:00.385Z,24.70
2023-06-21T18:25:30.364Z,24.70
2023-06-21T18:27:59.389Z,24.60
2023-06-21T18:30:27.879Z,24.60
2023-06-21T18:32:56.064Z,24.50
2023-06-21T18:35:24.076Z,24.50
2023-06-21T18:37:52.069Z,24.50
2023-06-21T18:40:20.270Z,24.50
2023-06-21T18:42:49.551Z,24.40
2023-06-21T18:45:17.661Z,24.30
2023-06-21T18:47:48.726Z,24.20
2023-06-21T18:50:16.981Z,24.20
2023-06-21T18:52:45.269Z,24.10
2023-06-21T18:55:15.737Z,24.00
2023-06-21T18:57:44.355Z,23.90
2023-06-21T19:00:14.524Z,23.90
2023-06-21T19:02:42.764Z,23.90
2023-06-21T19:05:11.163Z,23.90
2023-06-21T19:07:39.259Z,23.80
2023-06-21T19:10:10.039Z,23.70
2023-06-21T19:12:38.429Z,23.60
2023-06-21T19:15:07.934Z,23.50
2023-06-21T19:17:37.509Z,23.40
2023-06-21T19:20:06.790Z,23.40
2023-06-21T19:22:34.872Z,23.40
2023-06-21T19:25:03.668Z,23.40
2023-06-21T19:27:31.736Z,23.30
2023-06-21T19:29:59.802Z,23.20
2023-06-21T19:32:28.164Z,23.20
2023-06-21T19:34:57.593Z,23.20
2023-06-21T19:37:26.069Z,23.10
2023-06-21T19:39:54.182Z,23.00
2023-06-21T19:42:23.449Z,22.90
2023-06-21T19:44:54.086Z,22.80
2023-06-21T19:47:22.134Z,22.80
2023-06-21T19:49:50.118Z,22.70
2023-06-21T19:52:19.521Z,22.70
2023-06-21T19:54:47.658Z,22.60
2023-06-21T19:57:15.926Z,22.50
2023-06-21T19:59:44.044Z,22.50
2023-06-21T20:02:12.102Z,22.40
2023-06-21T20:04:40.288Z,22.40
2023-06-21T20:07:11.189Z,22.30
2023-06-21T20:09:41.135Z,22.20
2023-06-21T20:12:11.264Z,22.10
2023-06-21T20:14:39.750Z,22.00
2023-06-21T20:17:09.932Z,22.10
2023-06-21T20:19:38.079Z,22.00
2023-06-21T20:22:06.676Z,22.00
2023-06-21T20:24:34.666Z,22.00
2023-06-21T20:27:04.491Z,21.90
2023-06-21T20:29:32.551Z,21.80
2023-06-21T20:32:00.638Z,21.80
2023-06-21T20:34:28.648Z,21.80
2023-06-21T20:36:56.696Z,21.80
2023-06-21T20:39:24.678Z,21.70
2023-06-21T20:41:52.684Z,21.70
2023-06-21T20:44:22.190Z,21.60
2023-06-21T20:46:50.255Z,21.60
2023-06-21T20:49:18.397Z,21.60
2023-06-21T20:51:46.673Z,21.50
2023-06-21T20:54:14.652Z,21.40
2023-06-21T20:56:44.743Z,21.40
2023-06-21T20:59:14.086Z,21.40
2023-06-21T21:01:44.566Z,21.40
2023-06-21T21:04:13.425Z,21.40
2023-06-21T21:06:41.627Z,21.30
2023-06-21T21:09:09.780Z,21.20
2023-06-21T21:11:37.759Z,21.20
2023-06-21T21:14:06.748Z,21.10
2023-06-21T21:16:35.237Z,21.00
2023-06-21T21:19:05.618Z,21.00
2023-06-21T21:21:33.626Z,21.00
2023-06-21T21:24:01.643Z,21.00
2023-06-21T21:26:29.603Z,20.90
2023-06-21T21:28:57.893Z,20.90
2023-06-21T21:31:26.531Z,20.80
2023-06-21T21:33:54.608Z,20.80
2023-06-21T21:36:24.495Z,20.70
2023-06-21T21:38:52.569Z,20.70
2023-06-21T21:41:21.747Z,20.70
2023-06-21T21:43:49.774Z,20.60
2023-06-21T21:46:17.818Z,20.60
2023-06-21T21:48:45.834Z,20.50
2023-06-21T21:51:14.637Z,20.40
2023-06-21T21:53:46.537Z,20.30
2023-06-21T21:56:15.740Z,20.30
2023-06-21T21:58:43.688Z,20.30
2023-06-21T22:01:11.768Z,20.30
2023-06-21T22:03:39.940Z,20.40
2023-06-21T22:06:08.166Z,20.30
2023-06-21T22:08:36.251Z,20.20
2023-06-21T22:11:05.553Z,20.20
2023-06-21T22:13:38.890Z,20.10
2023-06-21T22:16:07.516Z,20.00
2023-06-21T22:18:36.568Z,20.10
2023-06-21T22:21:06.755Z,20.10
2023-06-21T22:23:35.367Z,20.00
2023-06-21T22:26:06.247Z,20.00
2023-06-21T22:28:35.520Z,20.00
2023-06-21T22:31:04.067Z,19.90
2023-06-21T22:33:32.209Z,19.90
2023-06-21T22:36:00.736Z,19.90
2023-06-21T22:38:28.675Z,19.90
2023-06-21T22:40:56.821Z,19.80
2023-06-21T22:43:26.151Z,19.90
2023-06-21T22:45:54.502Z,19.80
2023-06-21T22:48:23.104Z,19.80
2023-06-21T22:50:51.181Z,19.70
2023-06-21T22:53:20.728Z,19.70
2023-06-21T22:55:48.709Z,19.70
2023-06-21T22:58:17.683Z,19.60
2023-06-21T23:00:47.266Z,19.60
2023-06-21T23:03:15.502Z,19.60
2023-06-21T23:05:47.474Z,19.60
2023-06-21T23:08:15.724Z,19.60
2023-06-21T23:10:44.213Z,19.60
2023-06-21T23:13:12.280Z,19.60
2023-06-21T23:15:42.002Z,19.50
2023-06-21T23:18:11.294Z,19.50
2023-06-21T23:20:39.402Z,19.50
2023-06-21T23:23:15.194Z,19.50
2023-06-21T23:25:43.254Z,19.40
2023-06-21T23:28:11.519Z,19.40
2023-06-21T23:30:44.469Z,19.30
2023-06-21T23:33:14.004Z,19.30
2023-06-21T23:35:43.212Z,19.30
2023-06-21T23:38:12.191Z,19.30
2023-06-21T23:40:40.630Z,19.40
2023-06-21T23:43:09.109Z,19.30
2023-06-21T23:45:40.364Z,19.30
2023-06-21T23:48:08.842Z,19.30
2023-06-21T23:50:38.327Z,19.20
2023-06-21T23:53:07.753Z,19.20
2023-06-21T23:55:40.014Z,19.10
2023-06-21T23:58:08.621Z,19.10
